sensor_id;sensor_type;location;lat;lon;timestamp;temperature;humidity
41294;DHT22;27037;52.010;4.446;2022-07-31T00:00:21;20.40;97.40
41294;DHT22;27037;52.010;4.446;2022-07-31T00:02:47;20.40;98.30
41294;DHT22;27037;52.010;4.446;2022-07-31T00:05:12;20.40;99.40
41294;DHT22;27037;52.010;4.446;2022-07-31T00:07:38;20.40;99.90
41294;DHT22;27037;52.010;4.446;2022-07-31T00:10:04;20.40;99.90
41294;DHT22;27037;52.010;4.446;2022-07-31T00:12:30;20.40;99.90
41294;DHT22;27037;52.010;4.446;2022-07-31T00:14:56;20.40;99.90
41294;DHT22;27037;52.010;4.446;2022-07-31T00:17:21;20.40;99.90
41294;DHT22;27037;52.010;4.446;2022-07-31T00:19:47;20.40;99.90
41294;DHT22;27037;52.010;4.446;2022-07-31T00:22:12;20.40;99.90
41294;DHT22;27037;52.010;4.446;2022-07-31T00:24:38;20.40;99.90
41294;DHT22;27037;52.010;4.446;2022-07-31T00:27:04;20.40;99.90
41294;DHT22;27037;52.010;4.446;2022-07-31T00:29:29;20.40;99.90
41294;DHT22;27037;52.010;4.446;2022-07-31T00:31:55;20.40;99.90
41294;DHT22;27037;52.010;4.446;2022-07-31T00:34:21;20.40;99.90
41294;DHT22;27037;52.010;4.446;2022-07-31T00:36:47;20.40;99.90
41294;DHT22;27037;52.010;4.446;2022-07-31T00:39:12;20.40;99.90
41294;DHT22;27037;52.010;4.446;2022-07-31T00:41:43;20.40;99.90
41294;DHT22;27037;52.010;4.446;2022-07-31T00:44:10;20.30;99.90
41294;DHT22;27037;52.010;4.446;2022-07-31T00:46:36;20.30;99.90
41294;DHT22;27037;52.010;4.446;2022-07-31T00:49:03;20.30;99.90
41294;DHT22;27037;52.010;4.446;2022-07-31T00:51:29;20.30;99.90
41294;DHT22;27037;52.010;4.446;2022-07-31T00:53:54;20.20;99.90
41294;DHT22;27037;52.010;4.446;2022-07-31T00:56:20;20.20;99.90
41294;DHT22;27037;52.010;4.446;2022-07-31T00:58:46;20.20;99.90
41294;DHT22;27037;52.010;4.446;2022-07-31T01:01:12;20.20;99.90
41294;DHT22;27037;52.010;4.446;2022-07-31T01:03:37;20.10;99.90
41294;DHT22;27037;52.010;4.446;2022-07-31T01:06:03;20.10;99.90
41294;DHT22;27037;52.010;4.446;2022-07-31T01:08:29;20.20;99.90
41294;DHT22;27037;52.010;4.446;2022-07-31T01:11:22;20.10;99.90
41294;DHT22;27037;52.010;4.446;2022-07-31T01:13:55;20.20;99.90
41294;DHT22;27037;52.010;4.446;2022-07-31T01:16:25;20.20;99.90
41294;DHT22;27037;52.010;4.446;2022-07-31T01:18:54;20.20;99.90
41294;DHT22;27037;52.010;4.446;2022-07-31T01:21:31;20.10;99.90
41294;DHT22;27037;52.010;4.446;2022-07-31T01:24:06;20.10;99.90
41294;DHT22;27037;52.010;4.446;2022-07-31T01:26:45;20.10;99.90
41294;DHT22;27037;52.010;4.446;2022-07-31T01:29:26;20.10;99.90
41294;DHT22;27037;52.010;4.446;2022-07-31T01:32:35;20.10;99.90
41294;DHT22;27037;52.010;4.446;2022-07-31T01:35:15;20.10;99.90
41294;DHT22;27037;52.010;4.446;2022-07-31T01:37:48;20.10;99.90
41294;DHT22;27037;52.010;4.446;2022-07-31T01:40:34;20.00;99.90
41294;DHT22;27037;52.010;4.446;2022-07-31T01:43:10;20.00;99.90
41294;DHT22;27037;52.010;4.446;2022-07-31T01:45:39;20.00;99.90
41294;DHT22;27037;52.010;4.446;2022-07-31T01:48:07;20.00;99.90
41294;DHT22;27037;52.010;4.446;2022-07-31T01:50:36;20.00;99.90
41294;DHT22;27037;52.010;4.446;2022-07-31T01:53:03;20.00;99.90
41294;DHT22;27037;52.010;4.446;2022-07-31T01:55:30;20.00;99.90
41294;DHT22;27037;52.010;4.446;2022-07-31T01:57:56;20.00;99.90
41294;DHT22;27037;52.010;4.446;2022-07-31T02:00:22;20.00;99.90
41294;DHT22;27037;52.010;4.446;2022-07-31T02:02:48;20.00;99.90
41294;DHT22;27037;52.010;4.446;2022-07-31T02:05:16;20.00;99.90
41294;DHT22;27037;52.010;4.446;2022-07-31T02:07:43;20.00;99.90
41294;DHT22;27037;52.010;4.446;2022-07-31T02:10:10;20.00;99.90
41294;DHT22;27037;52.010;4.446;2022-07-31T02:12:37;20.00;99.90
41294;DHT22;27037;52.010;4.446;2022-07-31T02:15:06;20.00;99.90
41294;DHT22;27037;52.010;4.446;2022-07-31T02:17:33;20.00;99.90
41294;DHT22;27037;52.010;4.446;2022-07-31T02:20:01;20.00;99.90
41294;DHT22;27037;52.010;4.446;2022-07-31T02:22:27;20.00;99.90
41294;DHT22;27037;52.010;4.446;2022-07-31T02:24:53;20.00;99.90
41294;DHT22;27037;52.010;4.446;2022-07-31T02:27:19;20.00;99.90
41294;DHT22;27037;52.010;4.446;2022-07-31T02:29:47;20.00;99.90
41294;DHT22;27037;52.010;4.446;2022-07-31T02:32:13;20.00;99.90
41294;DHT22;27037;52.010;4.446;2022-07-31T02:34:39;20.00;99.90
41294;DHT22;27037;52.010;4.446;2022-07-31T02:37:06;20.00;99.90
41294;DHT22;27037;52.010;4.446;2022-07-31T02:39:33;20.00;99.90
41294;DHT22;27037;52.010;4.446;2022-07-31T02:42:01;19.90;99.90
41294;DHT22;27037;52.010;4.446;2022-07-31T02:44:27;19.90;99.90
41294;DHT22;27037;52.010;4.446;2022-07-31T02:46:55;19.90;99.90
41294;DHT22;27037;52.010;4.446;2022-07-31T02:49:22;19.90;99.90
41294;DHT22;27037;52.010;4.446;2022-07-31T02:51:48;19.90;99.90
41294;DHT22;27037;52.010;4.446;2022-07-31T02:54:14;19.90;99.90
41294;DHT22;27037;52.010;4.446;2022-07-31T02:56:40;19.90;99.90
41294;DHT22;27037;52.010;4.446;2022-07-31T02:59:07;19.90;99.90
41294;DHT22;27037;52.010;4.446;2022-07-31T03:01:34;19.90;99.90
41294;DHT22;27037;52.010;4.446;2022-07-31T03:04:00;19.90;99.90
41294;DHT22;27037;52.010;4.446;2022-07-31T03:06:26;19.80;99.90
41294;DHT22;27037;52.010;4.446;2022-07-31T03:08:52;19.80;99.90
41294;DHT22;27037;52.010;4.446;2022-07-31T03:11:17;19.80;99.90
41294;DHT22;27037;52.010;4.446;2022-07-31T03:13:44;19.80;99.90
41294;DHT22;27037;52.010;4.446;2022-07-31T03:16:11;19.80;99.90
41294;DHT22;27037;52.010;4.446;2022-07-31T03:18:38;19.80;99.90
41294;DHT22;27037;52.010;4.446;2022-07-31T03:21:05;19.80;99.90
41294;DHT22;27037;52.010;4.446;2022-07-31T03:23:31;19.70;99.90
41294;DHT22;27037;52.010;4.446;2022-07-31T03:26:01;19.70;99.90
41294;DHT22;27037;52.010;4.446;2022-07-31T03:28:26;19.70;99.90
41294;DHT22;27037;52.010;4.446;2022-07-31T03:30:52;19.70;99.90
41294;DHT22;27037;52.010;4.446;2022-07-31T03:33:18;19.70;99.90
41294;DHT22;27037;52.010;4.446;2022-07-31T03:35:43;19.70;99.90
41294;DHT22;27037;52.010;4.446;2022-07-31T03:38:09;19.70;99.90
41294;DHT22;27037;52.010;4.446;2022-07-31T03:40:34;19.60;99.90
41294;DHT22;27037;52.010;4.446;2022-07-31T03:43:01;19.60;99.90
41294;DHT22;27037;52.010;4.446;2022-07-31T03:45:29;19.60;99.90
41294;DHT22;27037;52.010;4.446;2022-07-31T03:47:55;19.60;99.90
41294;DHT22;27037;52.010;4.446;2022-07-31T03:50:21;19.60;99.90
41294;DHT22;27037;52.010;4.446;2022-07-31T03:52:47;19.60;99.90
41294;DHT22;27037;52.010;4.446;2022-07-31T03:55:13;19.60;99.90
41294;DHT22;27037;52.010;4.446;2022-07-31T03:57:39;19.60;99.90
41294;DHT22;27037;52.010;4.446;2022-07-31T04:00:07;19.60;99.90
41294;DHT22;27037;52.010;4.446;2022-07-31T04:02:33;19.60;99.90
41294;DHT22;27037;52.010;4.446;2022-07-31T04:04:59;19.60;99.90
41294;DHT22;27037;52.010;4.446;2022-07-31T04:07:25;19.60;99.90
41294;DHT22;27037;52.010;4.446;2022-07-31T04:09:52;19.60;99.90
41294;DHT22;27037;52.010;4.446;2022-07-31T04:12:17;19.60;99.90
41294;DHT22;27037;52.010;4.446;2022-07-31T04:14:43;19.60;99.90
41294;DHT22;27037;52.010;4.446;2022-07-31T04:17:09;19.60;99.90
41294;DHT22;27037;52.010;4.446;2022-07-31T04:19:35;19.60;99.90
41294;DHT22;27037;52.010;4.446;2022-07-31T04:22:02;19.60;99.90
41294;DHT22;27037;52.010;4.446;2022-07-31T04:24:28;19.60;99.90
41294;DHT22;27037;52.010;4.446;2022-07-31T04:26:54;19.60;99.90
41294;DHT22;27037;52.010;4.446;2022-07-31T04:29:20;19.70;99.90
41294;DHT22;27037;52.010;4.446;2022-07-31T04:31:46;19.70;99.90
41294;DHT22;27037;52.010;4.446;2022-07-31T04:34:11;19.70;99.90
41294;DHT22;27037;52.010;4.446;2022-07-31T04:36:37;19.70;99.90
41294;DHT22;27037;52.010;4.446;2022-07-31T04:39:05;19.70;99.90
41294;DHT22;27037;52.010;4.446;2022-07-31T04:41:31;19.70;99.90
41294;DHT22;27037;52.010;4.446;2022-07-31T04:43:56;19.70;99.90
41294;DHT22;27037;52.010;4.446;2022-07-31T04:46:23;19.80;99.90
41294;DHT22;27037;52.010;4.446;2022-07-31T04:48:49;19.80;99.90
41294;DHT22;27037;52.010;4.446;2022-07-31T04:51:18;19.80;99.90
41294;DHT22;27037;52.010;4.446;2022-07-31T04:53:44;19.80;99.90
41294;DHT22;27037;52.010;4.446;2022-07-31T04:56:10;19.80;99.90
41294;DHT22;27037;52.010;4.446;2022-07-31T04:58:54;19.80;99.90
41294;DHT22;27037;52.010;4.446;2022-07-31T05:01:20;19.80;99.90
41294;DHT22;27037;52.010;4.446;2022-07-31T05:03:46;19.90;99.90
41294;DHT22;27037;52.010;4.446;2022-07-31T05:06:12;19.90;99.90
41294;DHT22;27037;52.010;4.446;2022-07-31T05:08:38;19.90;99.90
41294;DHT22;27037;52.010;4.446;2022-07-31T05:11:05;19.90;99.90
41294;DHT22;27037;52.010;4.446;2022-07-31T05:13:50;19.90;99.90
41294;DHT22;27037;52.010;4.446;2022-07-31T05:16:17;19.90;99.90
41294;DHT22;27037;52.010;4.446;2022-07-31T05:18:43;19.90;99.90
41294;DHT22;27037;52.010;4.446;2022-07-31T05:21:10;19.90;99.90
41294;DHT22;27037;52.010;4.446;2022-07-31T05:23:36;20.00;99.90
41294;DHT22;27037;52.010;4.446;2022-07-31T05:26:03;19.90;99.90
41294;DHT22;27037;52.010;4.446;2022-07-31T05:28:29;20.00;99.90
41294;DHT22;27037;52.010;4.446;2022-07-31T05:30:55;20.00;99.90
41294;DHT22;27037;52.010;4.446;2022-07-31T05:33:20;20.00;99.90
41294;DHT22;27037;52.010;4.446;2022-07-31T05:35:46;20.00;99.90
41294;DHT22;27037;52.010;4.446;2022-07-31T05:38:11;20.10;99.90
41294;DHT22;27037;52.010;4.446;2022-07-31T05:40:37;20.00;99.90
41294;DHT22;27037;52.010;4.446;2022-07-31T05:43:02;20.10;99.90
41294;DHT22;27037;52.010;4.446;2022-07-31T05:45:28;20.10;99.90
41294;DHT22;27037;52.010;4.446;2022-07-31T05:47:54;20.10;99.90
41294;DHT22;27037;52.010;4.446;2022-07-31T05:50:19;20.10;99.90
41294;DHT22;27037;52.010;4.446;2022-07-31T05:52:46;20.10;99.90
41294;DHT22;27037;52.010;4.446;2022-07-31T05:55:14;20.20;99.90
41294;DHT22;27037;52.010;4.446;2022-07-31T05:57:39;20.10;99.90
41294;DHT22;27037;52.010;4.446;2022-07-31T06:00:05;20.20;99.90
41294;DHT22;27037;52.010;4.446;2022-07-31T06:02:31;20.20;99.90
41294;DHT22;27037;52.010;4.446;2022-07-31T06:04:56;20.20;99.90
41294;DHT22;27037;52.010;4.446;2022-07-31T06:07:22;20.20;99.90
41294;DHT22;27037;52.010;4.446;2022-07-31T06:09:48;20.20;99.90
41294;DHT22;27037;52.010;4.446;2022-07-31T06:12:13;20.20;99.90
41294;DHT22;27037;52.010;4.446;2022-07-31T06:14:39;20.30;99.90
41294;DHT22;27037;52.010;4.446;2022-07-31T06:17:05;20.30;99.90
41294;DHT22;27037;52.010;4.446;2022-07-31T06:19:32;20.30;99.90
41294;DHT22;27037;52.010;4.446;2022-07-31T06:21:57;20.40;99.90
41294;DHT22;27037;52.010;4.446;2022-07-31T06:24:23;20.40;99.90
41294;DHT22;27037;52.010;4.446;2022-07-31T06:26:50;20.40;99.90
41294;DHT22;27037;52.010;4.446;2022-07-31T06:29:16;20.40;99.90
41294;DHT22;27037;52.010;4.446;2022-07-31T06:31:41;20.40;99.90
41294;DHT22;27037;52.010;4.446;2022-07-31T06:34:07;20.40;99.90
41294;DHT22;27037;52.010;4.446;2022-07-31T06:36:32;20.50;99.90
41294;DHT22;27037;52.010;4.446;2022-07-31T06:38:58;20.40;99.90
41294;DHT22;27037;52.010;4.446;2022-07-31T06:41:24;20.50;99.90
41294;DHT22;27037;52.010;4.446;2022-07-31T06:44:08;20.50;99.90
41294;DHT22;27037;52.010;4.446;2022-07-31T06:46:34;20.50;99.90
41294;DHT22;27037;52.010;4.446;2022-07-31T06:48:59;20.50;99.90
41294;DHT22;27037;52.010;4.446;2022-07-31T06:51:25;20.60;99.90
41294;DHT22;27037;52.010;4.446;2022-07-31T06:53:50;20.60;99.90
41294;DHT22;27037;52.010;4.446;2022-07-31T06:56:16;20.70;99.90
41294;DHT22;27037;52.010;4.446;2022-07-31T06:58:42;20.70;99.90
41294;DHT22;27037;52.010;4.446;2022-07-31T07:01:07;20.80;99.90
41294;DHT22;27037;52.010;4.446;2022-07-31T07:03:33;20.80;99.90
41294;DHT22;27037;52.010;4.446;2022-07-31T07:05:58;20.80;99.90
41294;DHT22;27037;52.010;4.446;2022-07-31T07:08:24;20.80;99.90
41294;DHT22;27037;52.010;4.446;2022-07-31T07:10:50;20.80;99.90
41294;DHT22;27037;52.010;4.446;2022-07-31T07:13:15;20.80;99.90
41294;DHT22;27037;52.010;4.446;2022-07-31T07:15:41;20.80;99.90
41294;DHT22;27037;52.010;4.446;2022-07-31T07:18:06;20.80;99.90
41294;DHT22;27037;52.010;4.446;2022-07-31T07:20:32;20.80;99.90
41294;DHT22;27037;52.010;4.446;2022-07-31T07:22:58;20.80;99.90
41294;DHT22;27037;52.010;4.446;2022-07-31T07:25:23;20.80;99.90
41294;DHT22;27037;52.010;4.446;2022-07-31T07:27:49;20.80;99.90
41294;DHT22;27037;52.010;4.446;2022-07-31T07:30:14;20.80;99.90
41294;DHT22;27037;52.010;4.446;2022-07-31T07:32:40;20.80;99.90
41294;DHT22;27037;52.010;4.446;2022-07-31T07:35:06;20.80;99.90
41294;DHT22;27037;52.010;4.446;2022-07-31T07:37:33;20.80;99.90
41294;DHT22;27037;52.010;4.446;2022-07-31T07:39:59;20.80;99.90
41294;DHT22;27037;52.010;4.446;2022-07-31T07:42:24;20.80;99.90
41294;DHT22;27037;52.010;4.446;2022-07-31T07:44:50;20.80;99.90
41294;DHT22;27037;52.010;4.446;2022-07-31T07:47:15;20.80;99.90
41294;DHT22;27037;52.010;4.446;2022-07-31T07:49:41;20.80;99.90
41294;DHT22;27037;52.010;4.446;2022-07-31T07:52:07;20.90;99.90
41294;DHT22;27037;52.010;4.446;2022-07-31T07:54:32;20.80;99.90
41294;DHT22;27037;52.010;4.446;2022-07-31T07:56:58;20.80;99.90
41294;DHT22;27037;52.010;4.446;2022-07-31T07:59:24;20.80;99.90
41294;DHT22;27037;52.010;4.446;2022-07-31T08:01:49;20.70;99.90
41294;DHT22;27037;52.010;4.446;2022-07-31T08:04:15;20.70;99.90
41294;DHT22;27037;52.010;4.446;2022-07-31T08:06:40;20.70;99.90
41294;DHT22;27037;52.010;4.446;2022-07-31T08:09:06;20.70;99.90
41294;DHT22;27037;52.010;4.446;2022-07-31T08:11:32;20.60;99.90
41294;DHT22;27037;52.010;4.446;2022-07-31T08:13:58;20.60;99.90
41294;DHT22;27037;52.010;4.446;2022-07-31T08:16:23;20.60;99.90
41294;DHT22;27037;52.010;4.446;2022-07-31T08:18:50;20.70;99.90
41294;DHT22;27037;52.010;4.446;2022-07-31T08:21:16;20.70;99.90
41294;DHT22;27037;52.010;4.446;2022-07-31T08:23:42;20.70;99.90
41294;DHT22;27037;52.010;4.446;2022-07-31T08:26:08;20.70;99.90
41294;DHT22;27037;52.010;4.446;2022-07-31T08:28:34;20.80;99.90
41294;DHT22;27037;52.010;4.446;2022-07-31T08:31:00;20.80;99.90
41294;DHT22;27037;52.010;4.446;2022-07-31T08:33:26;20.80;99.90
41294;DHT22;27037;52.010;4.446;2022-07-31T08:35:51;20.80;99.90
41294;DHT22;27037;52.010;4.446;2022-07-31T08:38:18;20.80;99.90
41294;DHT22;27037;52.010;4.446;2022-07-31T08:40:44;20.80;99.90
41294;DHT22;27037;52.010;4.446;2022-07-31T08:43:11;20.80;99.90
41294;DHT22;27037;52.010;4.446;2022-07-31T08:45:39;20.80;99.90
41294;DHT22;27037;52.010;4.446;2022-07-31T08:48:06;20.80;99.90
41294;DHT22;27037;52.010;4.446;2022-07-31T08:50:33;20.80;99.90
41294;DHT22;27037;52.010;4.446;2022-07-31T08:53:00;20.80;99.90
41294;DHT22;27037;52.010;4.446;2022-07-31T08:55:28;20.80;99.90
41294;DHT22;27037;52.010;4.446;2022-07-31T08:57:53;20.80;99.90
41294;DHT22;27037;52.010;4.446;2022-07-31T09:00:19;20.80;99.90
41294;DHT22;27037;52.010;4.446;2022-07-31T09:02:47;20.80;99.90
41294;DHT22;27037;52.010;4.446;2022-07-31T09:05:13;20.90;99.90
41294;DHT22;27037;52.010;4.446;2022-07-31T09:07:41;20.90;99.90
41294;DHT22;27037;52.010;4.446;2022-07-31T09:10:27;20.90;99.90
41294;DHT22;27037;52.010;4.446;2022-07-31T09:12:54;20.90;99.90
41294;DHT22;27037;52.010;4.446;2022-07-31T09:15:21;20.80;99.90
41294;DHT22;27037;52.010;4.446;2022-07-31T09:17:47;20.90;99.90
41294;DHT22;27037;52.010;4.446;2022-07-31T09:20:20;20.90;99.90
41294;DHT22;27037;52.010;4.446;2022-07-31T09:22:46;20.90;99.90
41294;DHT22;27037;52.010;4.446;2022-07-31T09:25:15;20.90;99.90
41294;DHT22;27037;52.010;4.446;2022-07-31T09:27:43;20.90;99.90
41294;DHT22;27037;52.010;4.446;2022-07-31T09:30:09;20.80;99.90
41294;DHT22;27037;52.010;4.446;2022-07-31T09:32:36;20.80;99.90
41294;DHT22;27037;52.010;4.446;2022-07-31T09:35:09;20.80;99.90
41294;DHT22;27037;52.010;4.446;2022-07-31T09:37:35;20.80;99.90
41294;DHT22;27037;52.010;4.446;2022-07-31T09:40:01;20.70;99.90
41294;DHT22;27037;52.010;4.446;2022-07-31T09:42:41;20.70;99.90
41294;DHT22;27037;52.010;4.446;2022-07-31T09:45:36;20.60;99.90
41294;DHT22;27037;52.010;4.446;2022-07-31T09:48:06;20.60;99.90
41294;DHT22;27037;52.010;4.446;2022-07-31T09:50:33;20.50;99.90
41294;DHT22;27037;52.010;4.446;2022-07-31T09:52:59;20.50;99.90
41294;DHT22;27037;52.010;4.446;2022-07-31T09:55:25;20.50;99.90
41294;DHT22;27037;52.010;4.446;2022-07-31T09:57:52;20.50;99.90
41294;DHT22;27037;52.010;4.446;2022-07-31T10:00:18;20.40;99.90
41294;DHT22;27037;52.010;4.446;2022-07-31T10:02:44;20.40;99.90
41294;DHT22;27037;52.010;4.446;2022-07-31T10:05:10;20.40;99.90
41294;DHT22;27037;52.010;4.446;2022-07-31T10:07:37;20.40;99.90
41294;DHT22;27037;52.010;4.446;2022-07-31T10:10:05;20.40;99.90
41294;DHT22;27037;52.010;4.446;2022-07-31T10:12:34;20.40;99.90
41294;DHT22;27037;52.010;4.446;2022-07-31T10:15:04;20.40;99.90
41294;DHT22;27037;52.010;4.446;2022-07-31T10:17:32;20.40;99.90
41294;DHT22;27037;52.010;4.446;2022-07-31T10:20:02;20.40;99.90
41294;DHT22;27037;52.010;4.446;2022-07-31T10:22:45;20.40;99.90
41294;DHT22;27037;52.010;4.446;2022-07-31T10:25:18;20.40;99.90
41294;DHT22;27037;52.010;4.446;2022-07-31T10:27:45;20.40;99.90
41294;DHT22;27037;52.010;4.446;2022-07-31T10:30:11;20.40;99.90
41294;DHT22;27037;52.010;4.446;2022-07-31T10:32:37;20.40;99.90
41294;DHT22;27037;52.010;4.446;2022-07-31T10:35:04;20.40;99.90
41294;DHT22;27037;52.010;4.446;2022-07-31T10:40:48;20.50;99.90
41294;DHT22;27037;52.010;4.446;2022-07-31T10:43:31;20.50;99.90
41294;DHT22;27037;52.010;4.446;2022-07-31T10:46:01;20.50;99.90
41294;DHT22;27037;52.010;4.446;2022-07-31T10:48:27;20.50;99.90
41294;DHT22;27037;52.010;4.446;2022-07-31T10:51:08;20.50;99.90
41294;DHT22;27037;52.010;4.446;2022-07-31T10:53:37;20.60;99.90
41294;DHT22;27037;52.010;4.446;2022-07-31T10:56:07;20.60;99.90
41294;DHT22;27037;52.010;4.446;2022-07-31T10:58:51;20.60;99.90
41294;DHT22;27037;52.010;4.446;2022-07-31T11:01:17;20.60;99.90
41294;DHT22;27037;52.010;4.446;2022-07-31T11:03:48;20.60;99.90
41294;DHT22;27037;52.010;4.446;2022-07-31T11:06:17;20.50;99.90
41294;DHT22;27037;52.010;4.446;2022-07-31T11:08:45;20.50;99.90
41294;DHT22;27037;52.010;4.446;2022-07-31T11:11:12;20.60;99.90
41294;DHT22;27037;52.010;4.446;2022-07-31T11:13:49;20.70;99.90
41294;DHT22;27037;52.010;4.446;2022-07-31T11:16:16;20.80;99.90
41294;DHT22;27037;52.010;4.446;2022-07-31T11:18:41;20.90;99.90
41294;DHT22;27037;52.010;4.446;2022-07-31T11:21:08;20.90;99.90
41294;DHT22;27037;52.010;4.446;2022-07-31T11:23:34;20.90;99.90
41294;DHT22;27037;52.010;4.446;2022-07-31T11:26:03;20.90;99.90
41294;DHT22;27037;52.010;4.446;2022-07-31T11:28:29;21.00;99.90
41294;DHT22;27037;52.010;4.446;2022-07-31T11:31:03;21.00;99.90
41294;DHT22;27037;52.010;4.446;2022-07-31T11:33:33;21.10;99.90
41294;DHT22;27037;52.010;4.446;2022-07-31T11:38:36;21.20;99.90
41294;DHT22;27037;52.010;4.446;2022-07-31T11:41:03;21.10;99.90
41294;DHT22;27037;52.010;4.446;2022-07-31T11:43:29;21.20;99.90
41294;DHT22;27037;52.010;4.446;2022-07-31T11:45:55;21.30;99.90
41294;DHT22;27037;52.010;4.446;2022-07-31T11:48:22;21.40;99.90
41294;DHT22;27037;52.010;4.446;2022-07-31T11:50:49;21.50;99.90
41294;DHT22;27037;52.010;4.446;2022-07-31T11:53:16;21.50;99.90
41294;DHT22;27037;52.010;4.446;2022-07-31T11:58:18;21.70;99.90
41294;DHT22;27037;52.010;4.446;2022-07-31T12:00:48;21.70;99.90
41294;DHT22;27037;52.010;4.446;2022-07-31T12:03:19;21.70;99.90
41294;DHT22;27037;52.010;4.446;2022-07-31T12:05:46;21.70;99.90
41294;DHT22;27037;52.010;4.446;2022-07-31T12:08:12;21.70;99.90
41294;DHT22;27037;52.010;4.446;2022-07-31T12:10:39;21.80;99.90
41294;DHT22;27037;52.010;4.446;2022-07-31T12:13:10;21.80;99.90
41294;DHT22;27037;52.010;4.446;2022-07-31T12:15:36;21.80;99.90
41294;DHT22;27037;52.010;4.446;2022-07-31T12:18:03;21.90;99.90
41294;DHT22;27037;52.010;4.446;2022-07-31T12:20:32;21.90;99.90
41294;DHT22;27037;52.010;4.446;2022-07-31T12:22:59;22.00;99.90
41294;DHT22;27037;52.010;4.446;2022-07-31T12:25:25;22.00;99.90
41294;DHT22;27037;52.010;4.446;2022-07-31T12:27:54;22.00;99.90
41294;DHT22;27037;52.010;4.446;2022-07-31T12:30:21;22.00;99.90
41294;DHT22;27037;52.010;4.446;2022-07-31T12:32:49;21.90;99.90
41294;DHT22;27037;52.010;4.446;2022-07-31T12:35:15;21.90;99.90
41294;DHT22;27037;52.010;4.446;2022-07-31T12:37:42;21.90;99.90
41294;DHT22;27037;52.010;4.446;2022-07-31T12:40:19;21.90;99.90
41294;DHT22;27037;52.010;4.446;2022-07-31T12:42:45;21.80;99.90
41294;DHT22;27037;52.010;4.446;2022-07-31T12:45:11;21.80;99.90
41294;DHT22;27037;52.010;4.446;2022-07-31T12:47:37;21.80;99.90
41294;DHT22;27037;52.010;4.446;2022-07-31T12:50:02;21.80;99.90
41294;DHT22;27037;52.010;4.446;2022-07-31T12:52:29;21.80;99.90
41294;DHT22;27037;52.010;4.446;2022-07-31T12:54:56;21.80;99.90
41294;DHT22;27037;52.010;4.446;2022-07-31T12:57:22;21.90;99.90
41294;DHT22;27037;52.010;4.446;2022-07-31T12:59:47;21.90;99.90
41294;DHT22;27037;52.010;4.446;2022-07-31T13:02:13;21.90;99.90
41294;DHT22;27037;52.010;4.446;2022-07-31T13:04:39;21.80;99.90
41294;DHT22;27037;52.010;4.446;2022-07-31T13:07:04;21.70;99.90
41294;DHT22;27037;52.010;4.446;2022-07-31T13:09:31;21.60;99.90
41294;DHT22;27037;52.010;4.446;2022-07-31T13:11:57;21.60;99.90
41294;DHT22;27037;52.010;4.446;2022-07-31T13:14:25;21.50;99.90
41294;DHT22;27037;52.010;4.446;2022-07-31T13:16:52;21.50;99.90
41294;DHT22;27037;52.010;4.446;2022-07-31T13:19:18;21.50;99.90
41294;DHT22;27037;52.010;4.446;2022-07-31T13:21:44;21.50;99.90
41294;DHT22;27037;52.010;4.446;2022-07-31T13:24:10;21.50;99.90
41294;DHT22;27037;52.010;4.446;2022-07-31T13:26:38;21.40;99.90
41294;DHT22;27037;52.010;4.446;2022-07-31T13:29:06;21.40;99.90
41294;DHT22;27037;52.010;4.446;2022-07-31T13:31:32;21.30;99.90
41294;DHT22;27037;52.010;4.446;2022-07-31T13:33:58;21.30;99.90
41294;DHT22;27037;52.010;4.446;2022-07-31T13:36:24;21.30;99.90
41294;DHT22;27037;52.010;4.446;2022-07-31T13:38:50;21.30;99.90
41294;DHT22;27037;52.010;4.446;2022-07-31T13:41:16;21.30;99.90
41294;DHT22;27037;52.010;4.446;2022-07-31T13:43:59;21.30;99.90
41294;DHT22;27037;52.010;4.446;2022-07-31T13:46:25;21.40;99.90
41294;DHT22;27037;52.010;4.446;2022-07-31T13:48:53;21.40;99.90
41294;DHT22;27037;52.010;4.446;2022-07-31T13:51:19;21.50;99.90
41294;DHT22;27037;52.010;4.446;2022-07-31T13:53:44;21.50;99.90
41294;DHT22;27037;52.010;4.446;2022-07-31T13:56:11;21.50;99.90
41294;DHT22;27037;52.010;4.446;2022-07-31T13:58:37;21.40;99.90
41294;DHT22;27037;52.010;4.446;2022-07-31T14:01:03;21.30;99.90
41294;DHT22;27037;52.010;4.446;2022-07-31T14:03:29;21.20;99.90
41294;DHT22;27037;52.010;4.446;2022-07-31T14:05:55;21.10;99.90
41294;DHT22;27037;52.010;4.446;2022-07-31T14:08:21;21.10;99.90
41294;DHT22;27037;52.010;4.446;2022-07-31T14:10:47;21.00;99.90
41294;DHT22;27037;52.010;4.446;2022-07-31T14:13:14;21.00;99.90
41294;DHT22;27037;52.010;4.446;2022-07-31T14:15:40;21.00;99.90
41294;DHT22;27037;52.010;4.446;2022-07-31T14:18:05;20.90;99.90
41294;DHT22;27037;52.010;4.446;2022-07-31T14:20:32;20.90;99.90
41294;DHT22;27037;52.010;4.446;2022-07-31T14:22:59;20.90;99.90
41294;DHT22;27037;52.010;4.446;2022-07-31T14:25:25;20.90;99.90
41294;DHT22;27037;52.010;4.446;2022-07-31T14:27:50;20.80;99.90
41294;DHT22;27037;52.010;4.446;2022-07-31T14:30:18;20.80;99.90
41294;DHT22;27037;52.010;4.446;2022-07-31T14:32:44;20.80;99.90
41294;DHT22;27037;52.010;4.446;2022-07-31T14:35:10;20.80;99.90
41294;DHT22;27037;52.010;4.446;2022-07-31T14:37:36;20.70;99.90
41294;DHT22;27037;52.010;4.446;2022-07-31T14:40:03;20.70;99.90
41294;DHT22;27037;52.010;4.446;2022-07-31T14:42:29;20.70;99.90
41294;DHT22;27037;52.010;4.446;2022-07-31T14:44:54;20.70;99.90
41294;DHT22;27037;52.010;4.446;2022-07-31T14:47:20;20.70;99.90
41294;DHT22;27037;52.010;4.446;2022-07-31T14:49:46;20.70;99.90
41294;DHT22;27037;52.010;4.446;2022-07-31T14:52:11;20.70;99.90
41294;DHT22;27037;52.010;4.446;2022-07-31T14:54:37;20.70;99.90
41294;DHT22;27037;52.010;4.446;2022-07-31T14:57:03;20.70;99.90
41294;DHT22;27037;52.010;4.446;2022-07-31T14:59:28;20.70;99.90
41294;DHT22;27037;52.010;4.446;2022-07-31T15:01:54;20.80;99.90
41294;DHT22;27037;52.010;4.446;2022-07-31T15:04:20;20.80;99.90
41294;DHT22;27037;52.010;4.446;2022-07-31T15:06:45;20.80;99.90
41294;DHT22;27037;52.010;4.446;2022-07-31T15:09:11;20.80;99.90
41294;DHT22;27037;52.010;4.446;2022-07-31T15:11:37;20.80;99.90
41294;DHT22;27037;52.010;4.446;2022-07-31T15:14:03;20.80;99.90
41294;DHT22;27037;52.010;4.446;2022-07-31T15:16:29;20.80;99.90
41294;DHT22;27037;52.010;4.446;2022-07-31T15:18:57;20.90;99.90
41294;DHT22;27037;52.010;4.446;2022-07-31T15:21:23;20.90;99.90
41294;DHT22;27037;52.010;4.446;2022-07-31T15:23:48;20.90;99.90
41294;DHT22;27037;52.010;4.446;2022-07-31T15:26:14;21.00;99.90
41294;DHT22;27037;52.010;4.446;2022-07-31T15:28:40;21.00;99.90
41294;DHT22;27037;52.010;4.446;2022-07-31T15:31:06;21.00;99.90
41294;DHT22;27037;52.010;4.446;2022-07-31T15:33:31;21.00;99.90
41294;DHT22;27037;52.010;4.446;2022-07-31T15:35:57;21.00;99.90
41294;DHT22;27037;52.010;4.446;2022-07-31T15:38:23;21.00;99.90